createdAt,value
2018-06-04T00:00:51.790Z,65.84
2018-06-04T00:03:22.438Z,65.84
2018-06-04T00:05:53.704Z,65.58
2018-06-04T00:08:24.332Z,66.16
2018-06-04T00:10:56.098Z,65.16
2018-06-04T00:13:26.811Z,65.09
2018-06-04T00:15:57.537Z,65.43
2018-06-04T00:18:28.321Z,64.71
2018-06-04T00:20:59.001Z,65.36
2018-06-04T00:23:29.634Z,64.74
2018-06-04T00:26:00.342Z,64.55
2018-06-04T00:28:31.050Z,64.58
2018-06-04T00:31:01.729Z,64.62
2018-06-04T00:33:31.921Z,65.00
2018-06-04T00:36:02.815Z,65.41
2018-06-04T00:38:33.474Z,65.12
2018-06-04T00:41:04.307Z,65.50
2018-06-04T00:43:35.045Z,65.50
2018-06-04T00:46:06.027Z,65.64
2018-06-04T00:48:36.718Z,65.98
2018-06-04T00:51:07.448Z,67.01
2018-06-04T00:53:38.179Z,66.84
2018-06-04T00:56:22.143Z,67.62
2018-06-04T00:58:52.817Z,68.52
2018-06-04T01:01:23.838Z,68.34
2018-06-04T01:03:54.410Z,68.26
2018-06-04T01:06:25.374Z,68.74
2018-06-04T01:08:55.917Z,68.85
2018-06-04T01:11:26.478Z,68.98
2018-06-04T01:13:57.206Z,68.72
2018-06-04T01:16:27.929Z,68.18
2018-06-04T01:18:58.672Z,67.50
2018-06-04T01:21:29.304Z,67.39
2018-06-04T01:23:59.918Z,67.77
2018-06-04T01:26:30.569Z,67.92
2018-06-04T01:29:01.250Z,67.60
2018-06-04T01:31:32.070Z,67.75
2018-06-04T01:34:02.778Z,68.17
2018-06-04T01:36:33.505Z,68.74
2018-06-04T01:39:03.981Z,68.47
2018-06-04T01:41:34.874Z,68.62
2018-06-04T01:44:05.745Z,68.70
2018-06-04T01:46:36.803Z,67.78
2018-06-04T01:49:07.429Z,67.50
2018-06-04T01:51:38.190Z,67.80
2018-06-04T01:54:08.714Z,68.56
2018-06-04T01:56:39.431Z,68.99
2018-06-04T01:59:10.037Z,68.62
2018-06-04T02:01:41.058Z,69.23
2018-06-04T02:04:11.638Z,68.16
2018-06-04T02:06:42.318Z,67.58
2018-06-04T02:09:12.925Z,66.81
2018-06-04T02:11:43.214Z,66.58
2018-06-04T02:14:13.841Z,66.52
2018-06-04T02:16:44.672Z,67.04
2018-06-04T02:19:15.369Z,66.72
2018-06-04T02:21:46.455Z,66.88
2018-06-04T02:24:17.138Z,66.59
2018-06-04T02:26:47.857Z,66.83
2018-06-04T02:29:18.553Z,66.80
2018-06-04T02:31:49.233Z,66.84
2018-06-04T02:34:19.916Z,66.38
2018-06-04T02:36:50.577Z,66.20
2018-06-04T02:39:21.282Z,65.71
2018-06-04T02:41:52.098Z,65.98
2018-06-04T02:44:22.756Z,66.83
2018-06-04T02:46:53.565Z,66.95
2018-06-04T02:49:24.209Z,66.34
2018-06-04T02:51:54.775Z,66.44
2018-06-04T02:54:25.539Z,67.58
2018-06-04T02:56:56.290Z,67.74
2018-06-04T02:59:26.954Z,67.38
2018-06-04T03:01:57.638Z,66.77
2018-06-04T03:04:27.817Z,66.86
2018-06-04T03:06:58.233Z,66.16
2018-06-04T03:09:28.856Z,65.22
2018-06-04T03:12:00.670Z,65.55
2018-06-04T03:14:31.399Z,65.32
2018-06-04T03:17:02.214Z,65.24
2018-06-04T03:19:32.216Z,65.62
2018-06-04T03:22:04.482Z,65.04
2018-06-04T03:24:35.234Z,65.36
2018-06-04T03:27:06.299Z,65.71
2018-06-04T03:29:36.981Z,66.35
2018-06-04T03:32:07.742Z,66.74
2018-06-04T03:34:38.444Z,66.39
2018-06-04T03:37:09.270Z,66.02
2018-06-04T03:39:39.971Z,66.40
2018-06-04T03:42:10.701Z,66.83
2018-06-04T03:44:41.431Z,66.88
2018-06-04T03:47:12.360Z,66.20
2018-06-04T03:49:43.041Z,65.53
2018-06-04T03:52:14.090Z,65.19
2018-06-04T03:54:44.819Z,64.84
2018-06-04T03:57:16.110Z,65.35
2018-06-04T03:59:46.722Z,64.65
2018-06-04T04:02:17.474Z,65.34
2018-06-04T04:04:48.042Z,65.37
2018-06-04T04:07:18.669Z,64.74
2018-06-04T04:09:49.374Z,63.84
2018-06-04T04:12:20.109Z,63.65
2018-06-04T04:14:50.682Z,63.98
2018-06-04T04:17:21.372Z,64.04
2018-06-04T04:19:52.067Z,63.37
2018-06-04T04:22:23.218Z,63.66
2018-06-04T04:24:53.887Z,63.43
2018-06-04T04:27:24.869Z,63.49
2018-06-04T04:29:55.538Z,63.21
2018-06-04T04:32:26.374Z,63.52
2018-06-04T04:34:57.005Z,63.27
2018-06-04T04:37:27.770Z,63.24
2018-06-04T04:39:58.428Z,62.14
2018-06-04T04:42:29.275Z,61.45
2018-06-04T04:44:59.906Z,60.63
2018-06-04T04:47:30.738Z,59.32
2018-06-04T04:50:01.379Z,57.43
2018-06-04T04:52:32.050Z,56.71
2018-06-04T04:55:02.149Z,56.37
2018-06-04T04:57:32.754Z,54.67
2018-06-04T05:00:03.540Z,54.38
2018-06-04T05:02:34.574Z,53.94
2018-06-04T05:05:05.421Z,53.92
2018-06-04T05:07:36.154Z,53.34
2018-06-04T05:10:06.883Z,53.21
2018-06-04T05:12:37.345Z,51.96
2018-06-04T05:15:08.053Z,51.60
2018-06-04T05:17:38.914Z,51.42
2018-06-04T05:20:09.614Z,51.19
2018-06-04T05:22:41.686Z,51.70
2018-06-04T05:25:12.367Z,50.76
2018-06-04T05:27:43.257Z,50.77
2018-06-04T05:30:14.044Z,50.57
2018-06-04T05:32:44.806Z,49.49
2018-06-04T05:35:15.451Z,49.36
2018-06-04T05:37:46.190Z,47.90
2018-06-04T05:40:16.654Z,48.86
2018-06-04T05:42:47.473Z,47.49
2018-06-04T05:45:18.129Z,47.87
2018-06-04T05:47:48.813Z,46.60
2018-06-04T05:50:19.489Z,45.65
2018-06-04T05:52:50.271Z,45.88
2018-06-04T05:55:20.469Z,44.81
2018-06-04T05:57:51.110Z,44.21
2018-06-04T06:00:21.823Z,45.98
2018-06-04T06:02:52.629Z,43.06
2018-06-04T06:05:23.394Z,41.90
2018-06-04T06:07:54.262Z,42.27
2018-06-04T06:10:24.877Z,42.46
2018-06-04T06:12:55.686Z,41.61
2018-06-04T06:15:26.434Z,42.00
2018-06-04T06:17:57.196Z,40.97
2018-06-04T06:20:27.867Z,42.31
2018-06-04T06:22:59.070Z,41.67
2018-06-04T06:25:29.717Z,41.55
2018-06-04T06:28:00.406Z,40.65
2018-06-04T06:30:31.080Z,41.24
2018-06-04T06:33:02.175Z,39.84
2018-06-04T06:35:32.742Z,40.62
2018-06-04T06:38:04.682Z,39.93
2018-06-04T06:40:35.397Z,39.76
2018-06-04T06:43:06.190Z,39.41
2018-06-04T06:45:36.871Z,39.62
2018-06-04T06:48:07.806Z,38.18
2018-06-04T06:50:38.482Z,37.06
2018-06-04T06:53:08.745Z,37.64
2018-06-04T06:55:39.505Z,36.16
2018-06-04T06:58:10.577Z,36.91
2018-06-04T07:00:41.268Z,36.09
2018-06-04T07:03:11.866Z,35.10
2018-06-04T07:05:42.170Z,35.71
2018-06-04T07:08:13.138Z,35.49
2018-06-04T07:10:43.893Z,33.89
2018-06-04T07:13:15.510Z,33.97
2018-06-04T07:15:45.853Z,33.35
2018-06-04T07:18:16.591Z,34.46
2018-06-04T07:20:46.958Z,33.19
2018-06-04T07:23:17.234Z,32.29
2018-06-04T07:25:47.576Z,32.01
2018-06-04T07:28:17.841Z,32.06
2018-06-04T07:30:48.235Z,31.19
2018-06-04T07:33:18.514Z,30.46
2018-06-04T07:35:48.954Z,31.09
2018-06-04T07:38:19.225Z,31.70
2018-06-04T07:40:49.578Z,30.53
2018-06-04T07:43:19.847Z,30.10
2018-06-04T07:45:50.338Z,30.45
2018-06-04T07:48:20.605Z,29.35
2018-06-04T07:50:51.029Z,30.38
2018-06-04T07:53:21.302Z,28.98
2018-06-04T07:55:51.750Z,29.99
2018-06-04T07:58:22.513Z,29.25
2018-06-04T08:00:52.879Z,29.40
2018-06-04T08:03:23.130Z,29.62
2018-06-04T08:05:53.896Z,29.66
2018-06-04T08:08:24.154Z,26.62
2018-06-04T08:10:55.107Z,27.15
2018-06-04T08:13:25.490Z,26.94
2018-06-04T08:15:56.276Z,26.66
2018-06-04T08:18:26.941Z,26.90
2018-06-04T08:20:57.277Z,26.46
2018-06-04T08:23:27.839Z,27.60
2018-06-04T08:25:58.362Z,27.32
2018-06-04T08:28:28.696Z,27.48
2018-06-04T08:30:59.026Z,25.63
2018-06-04T08:33:29.305Z,25.26
2018-06-04T08:36:00.269Z,25.33
2018-06-04T08:38:30.991Z,25.24
2018-06-04T08:41:01.944Z,25.64
2018-06-04T08:43:32.378Z,24.52
2018-06-04T08:46:03.055Z,24.74
2018-06-04T08:48:33.597Z,25.21
2018-06-04T08:51:04.534Z,24.65
2018-06-04T08:53:35.168Z,24.66
2018-06-04T08:56:05.510Z,24.23
2018-06-04T08:58:35.871Z,24.15
2018-06-04T09:01:06.326Z,23.87
2018-06-04T09:03:36.631Z,25.18
2018-06-04T09:06:07.162Z,25.01
2018-06-04T09:08:37.517Z,25.59
2018-06-04T09:11:08.009Z,24.13
2018-06-04T09:13:38.729Z,22.45
2018-06-04T09:16:09.411Z,24.79
2018-06-04T09:18:40.100Z,24.32
2018-06-04T09:21:10.834Z,23.56
2018-06-04T09:23:41.573Z,23.54
2018-06-04T09:26:12.302Z,24.53
2018-06-04T09:28:43.342Z,25.48
2018-06-04T09:31:14.010Z,26.02
2018-06-04T09:33:45.051Z,26.01
2018-06-04T09:36:15.790Z,26.46
2018-06-04T09:38:46.221Z,24.83
2018-06-04T09:41:16.959Z,24.23
2018-06-04T09:43:47.517Z,22.97
2018-06-04T09:46:18.067Z,23.67
2018-06-04T09:48:49.111Z,23.86
2018-06-04T09:51:19.780Z,23.09
2018-06-04T09:53:50.481Z,23.54
2018-06-04T09:56:20.803Z,23.22
2018-06-04T09:58:51.683Z,23.19
2018-06-04T10:01:22.417Z,22.14
2018-06-04T10:03:52.974Z,21.83
2018-06-04T10:06:23.289Z,23.41
2018-06-04T10:08:53.610Z,22.28
2018-06-04T10:11:23.950Z,24.37
2018-06-04T10:13:54.539Z,24.91
2018-06-04T10:16:25.375Z,25.23
2018-06-04T10:18:56.385Z,23.87
2018-06-04T10:21:27.171Z,22.89
2018-06-04T10:23:58.171Z,23.26
2018-06-04T10:26:29.047Z,22.85
2018-06-04T10:28:59.615Z,22.54
2018-06-04T10:31:30.035Z,21.16
2018-06-04T10:34:00.512Z,24.69
2018-06-04T10:36:30.823Z,24.41
2018-06-04T10:39:01.335Z,24.45
2018-06-04T10:41:31.803Z,23.74
2018-06-04T10:44:02.887Z,21.87
2018-06-04T10:46:33.750Z,22.44
2018-06-04T10:49:04.623Z,23.80
2018-06-04T10:51:35.475Z,22.89
2018-06-04T10:54:06.387Z,23.19
2018-06-04T10:56:37.611Z,23.15
2018-06-04T10:59:56.001Z,21.27
2018-06-04T11:02:26.843Z,20.95
2018-06-04T11:04:57.869Z,22.21
2018-06-04T11:07:28.343Z,22.57
2018-06-04T11:09:59.283Z,23.13
2018-06-04T11:12:30.186Z,22.81
2018-06-04T11:15:01.235Z,20.99
2018-06-04T11:17:32.111Z,21.96
2018-06-04T11:20:02.963Z,22.69
2018-06-04T11:22:33.475Z,22.82
2018-06-04T11:25:04.733Z,22.94
2018-06-04T11:27:35.218Z,22.47
2018-06-04T11:30:06.532Z,22.40
2018-06-04T11:32:37.093Z,23.93
2018-06-04T11:35:08.623Z,23.04
2018-06-04T11:37:39.121Z,22.56
2018-06-04T11:40:09.682Z,22.14
2018-06-04T11:42:40.706Z,22.60
2018-06-04T11:45:11.728Z,21.28
2018-06-04T11:47:42.487Z,21.53
2018-06-04T11:50:13.216Z,21.75
2018-06-04T11:52:43.694Z,21.36
2018-06-04T11:55:14.646Z,22.21
2018-06-04T11:57:45.422Z,22.67
2018-06-04T12:00:16.114Z,22.82
2018-06-04T12:02:46.518Z,23.60
2018-06-04T12:05:17.017Z,24.74
2018-06-04T12:07:47.433Z,25.44
2018-06-04T12:10:18.014Z,25.76
2018-06-04T12:12:48.766Z,24.71
2018-06-04T12:15:19.425Z,24.95
2018-06-04T12:17:49.529Z,25.27
2018-06-04T12:20:20.550Z,27.13
2018-06-04T12:22:51.259Z,25.40
2018-06-04T12:25:22.158Z,25.71
2018-06-04T12:27:52.410Z,26.60
2018-06-04T12:30:23.366Z,27.57
2018-06-04T12:32:53.702Z,25.70
2018-06-04T12:35:24.308Z,27.65
2018-06-04T12:37:54.992Z,29.01
2018-06-04T12:40:25.602Z,29.22
2018-06-04T12:42:55.937Z,28.82
2018-06-04T12:45:28.408Z,28.37
2018-06-04T12:47:58.785Z,27.95
2018-06-04T12:50:29.097Z,28.89
2018-06-04T12:52:59.425Z,29.33
2018-06-04T12:55:29.760Z,29.94
2018-06-04T12:58:00.560Z,27.35
2018-06-04T13:00:30.928Z,25.26
2018-06-04T13:03:01.309Z,25.30
2018-06-04T13:05:31.722Z,25.66
2018-06-04T13:08:02.097Z,22.70
2018-06-04T13:10:32.421Z,22.50
2018-06-04T13:13:02.865Z,23.63
2018-06-04T13:15:33.339Z,20.48
2018-06-04T13:18:05.124Z,21.13
2018-06-04T13:20:36.689Z,19.19
2018-06-04T13:23:07.433Z,21.71
2018-06-04T13:25:38.009Z,22.00
2018-06-04T13:28:08.523Z,22.51
2018-06-04T13:30:38.936Z,21.76
2018-06-04T13:33:09.435Z,21.99
2018-06-04T13:35:39.800Z,22.10
2018-06-04T13:38:10.230Z,19.67
2018-06-04T13:40:40.598Z,21.54
2018-06-04T13:43:11.358Z,22.52
2018-06-04T13:45:44.310Z,24.69
2018-06-04T13:48:14.863Z,24.99
2018-06-04T13:50:45.249Z,24.97
2018-06-04T13:53:15.700Z,24.53
2018-06-04T13:55:46.547Z,25.94
2018-06-04T13:58:16.865Z,24.92
2018-06-04T14:00:47.625Z,25.97
2018-06-04T14:03:17.957Z,28.17
2018-06-04T14:05:48.398Z,27.53
2018-06-04T14:08:18.746Z,27.75
2018-06-04T14:10:49.123Z,25.43
2018-06-04T14:13:19.442Z,24.29
2018-06-04T14:15:49.888Z,25.01
2018-06-04T14:18:21.206Z,24.87
2018-06-04T14:20:51.683Z,24.59
2018-06-04T14:23:22.147Z,22.82
2018-06-04T14:25:52.786Z,24.98
2018-06-04T14:28:23.172Z,23.42
2018-06-04T14:30:53.796Z,24.35
2018-06-04T14:33:24.214Z,24.19
2018-06-04T14:35:54.982Z,23.99
2018-06-04T14:38:25.315Z,24.63
2018-06-04T14:40:56.478Z,23.98
2018-06-04T14:43:26.834Z,24.07
2018-06-04T14:45:58.442Z,23.40
2018-06-04T14:48:28.806Z,24.14
2018-06-04T14:50:59.561Z,22.92
2018-06-04T14:53:30.024Z,23.78
2018-06-04T14:56:00.698Z,24.00
2018-06-04T14:58:31.250Z,25.47
2018-06-04T15:01:01.675Z,25.62
2018-06-04T15:03:32.111Z,25.58
2018-06-04T15:06:02.786Z,27.83
2018-06-04T15:08:33.146Z,28.30
2018-06-04T15:11:03.637Z,31.00
2018-06-04T15:13:34.005Z,33.37
2018-06-04T15:16:04.685Z,34.22
2018-06-04T15:18:34.976Z,35.68
2018-06-04T15:21:05.538Z,34.64
2018-06-04T15:23:35.834Z,33.88
2018-06-04T15:26:06.215Z,33.79
2018-06-04T15:28:36.570Z,34.59
2018-06-04T15:31:07.446Z,33.48
2018-06-04T15:33:37.813Z,33.83
2018-06-04T15:36:08.217Z,33.75
2018-06-04T15:38:38.525Z,33.83
2018-06-04T15:41:08.909Z,33.13
2018-06-04T15:43:39.274Z,33.22
2018-06-04T15:46:10.067Z,33.11
2018-06-04T15:48:40.415Z,31.56
2018-06-04T15:51:11.288Z,30.45
2018-06-04T15:53:41.614Z,31.22
2018-06-04T15:56:12.229Z,29.92
2018-06-04T15:58:42.647Z,30.47
2018-06-04T16:01:13.033Z,30.37
2018-06-04T16:03:43.383Z,31.01
2018-06-04T16:06:13.785Z,31.99
2018-06-04T16:08:44.109Z,32.34
2018-06-04T16:11:14.674Z,31.96
2018-06-04T16:13:44.981Z,31.81
2018-06-04T16:16:15.381Z,30.85
2018-06-04T16:18:45.715Z,30.05
2018-06-04T16:21:16.111Z,29.49
2018-06-04T16:23:46.470Z,30.67
2018-06-04T16:26:17.091Z,30.04
2018-06-04T16:28:47.398Z,30.40
2018-06-04T16:31:17.841Z,30.08
2018-06-04T16:33:48.167Z,30.47
2018-06-04T16:36:18.791Z,29.27
2018-06-04T16:38:49.144Z,26.56
2018-06-04T16:41:19.905Z,28.46
2018-06-04T16:43:50.277Z,29.20
2018-06-04T16:46:20.713Z,30.88
2018-06-04T16:48:51.091Z,29.10
2018-06-04T16:51:22.181Z,28.58
2018-06-04T16:53:52.501Z,30.42
2018-06-04T16:56:23.233Z,30.19
2018-06-04T16:58:53.597Z,30.59
2018-06-04T17:01:24.292Z,32.72
2018-06-04T17:03:54.633Z,33.05
2018-06-04T17:06:25.181Z,34.00
2018-06-04T17:08:55.505Z,33.77
2018-06-04T17:11:25.858Z,33.50
2018-06-04T17:13:56.183Z,34.55
2018-06-04T17:16:26.647Z,34.36
2018-06-04T17:18:56.998Z,34.96
2018-06-04T17:21:27.310Z,34.86
2018-06-04T17:23:57.633Z,34.05
2018-06-04T17:26:28.954Z,34.41
2018-06-04T17:28:59.350Z,34.41
2018-06-04T17:31:29.705Z,34.74
2018-06-04T17:34:00.152Z,36.24
2018-06-04T17:36:30.449Z,35.30
2018-06-04T17:39:01.007Z,35.87
2018-06-04T17:41:31.306Z,37.06
2018-06-04T17:44:01.883Z,36.79
2018-06-04T17:46:31.760Z,35.74
2018-06-04T17:49:02.121Z,35.67
2018-06-04T17:51:32.629Z,36.94
2018-06-04T17:54:02.905Z,37.08
2018-06-04T17:56:33.202Z,37.53
2018-06-04T17:59:03.772Z,38.41
2018-06-04T18:01:34.108Z,38.42
2018-06-04T18:04:05.024Z,37.80
2018-06-04T18:06:35.326Z,38.40
2018-06-04T18:09:08.630Z,37.89
2018-06-04T18:11:39.069Z,37.61
2018-06-04T18:14:09.660Z,38.19
2018-06-04T18:16:39.945Z,37.83
2018-06-04T18:19:10.335Z,38.83
2018-06-04T18:21:40.658Z,38.26
2018-06-04T18:24:11.089Z,38.72
2018-06-04T18:26:41.601Z,38.44
2018-06-04T18:29:11.950Z,39.83
2018-06-04T18:31:42.245Z,39.76
2018-06-04T18:34:12.674Z,40.16
2018-06-04T18:36:42.949Z,39.77
2018-06-04T18:39:13.322Z,41.25
2018-06-04T18:41:43.654Z,41.80
2018-06-04T18:44:13.961Z,43.50
2018-06-04T18:46:44.402Z,44.20
2018-06-04T18:49:14.797Z,45.17
2018-06-04T18:51:45.139Z,44.96
2018-06-04T18:54:15.857Z,46.12
2018-06-04T18:56:46.145Z,46.22
2018-06-04T18:59:16.560Z,46.45
2018-06-04T19:01:46.955Z,45.90
2018-06-04T19:04:17.946Z,46.38
2018-06-04T19:06:48.677Z,47.59
2018-06-04T19:09:19.709Z,46.90
2018-06-04T19:11:50.402Z,46.58
2018-06-04T19:14:21.213Z,45.38
2018-06-04T19:16:51.920Z,43.39
2018-06-04T19:19:22.757Z,40.70
2018-06-04T19:21:53.041Z,41.33
2018-06-04T19:24:23.469Z,43.67
2018-06-04T19:26:53.827Z,46.05
2018-06-04T19:29:24.726Z,44.59
2018-06-04T19:31:55.055Z,44.61
2018-06-04T19:34:25.493Z,44.58
2018-06-04T19:36:55.834Z,46.08
2018-06-04T19:39:26.210Z,48.13
2018-06-04T19:41:56.494Z,48.85
2018-06-04T19:44:27.280Z,48.80
2018-06-04T19:46:58.158Z,48.77
2018-06-04T19:49:28.854Z,48.81
2018-06-04T19:51:59.574Z,50.32
2018-06-04T19:54:30.347Z,50.35
2018-06-04T19:57:01.046Z,49.32
2018-06-04T19:59:31.674Z,49.29
2018-06-04T20:02:02.367Z,49.35
2018-06-04T20:04:33.173Z,48.40
2018-06-04T20:07:03.819Z,47.70
2018-06-04T20:09:34.609Z,47.69
2018-06-04T20:12:05.153Z,47.54
2018-06-04T20:14:35.649Z,47.43
2018-06-04T20:17:06.245Z,47.33
2018-06-04T20:19:36.850Z,48.28
2018-06-04T20:22:07.485Z,49.99
2018-06-04T20:24:38.379Z,52.14
2018-06-04T20:27:08.912Z,53.43
2018-06-04T20:29:39.711Z,52.44
2018-06-04T20:32:10.339Z,51.14
2018-06-04T20:34:41.026Z,50.30
2018-06-04T20:37:11.755Z,49.88
2018-06-04T20:39:42.480Z,49.67
2018-06-04T20:42:13.186Z,49.04
2018-06-04T20:44:43.978Z,48.20
2018-06-04T20:47:14.741Z,47.70
2018-06-04T20:49:45.494Z,48.20
2018-06-04T20:52:16.358Z,46.80
2018-06-04T20:54:47.169Z,49.34
2018-06-04T20:57:17.926Z,50.62
2018-06-04T20:59:48.732Z,52.09
2018-06-04T21:02:19.006Z,54.27
2018-06-04T21:04:49.709Z,55.18
2018-06-04T21:07:20.229Z,57.00
2018-06-04T21:09:51.218Z,56.80
2018-06-04T21:12:21.857Z,58.64
2018-06-04T21:14:52.637Z,60.08
2018-06-04T21:17:23.338Z,60.97
2018-06-04T21:19:54.029Z,61.30
2018-06-04T21:22:24.366Z,61.45
2018-06-04T21:24:55.063Z,63.12
2018-06-04T21:27:25.449Z,62.79
2018-06-04T21:29:56.285Z,62.84
2018-06-04T21:32:26.913Z,64.40
2018-06-04T21:34:58.001Z,64.87
2018-06-04T21:37:28.694Z,65.10
2018-06-04T21:39:59.017Z,65.52
2018-06-04T21:42:29.468Z,65.71
2018-06-04T21:45:00.146Z,66.24
2018-06-04T21:47:31.161Z,66.61
2018-06-04T21:50:01.775Z,66.37
2018-06-04T21:52:32.506Z,65.91
2018-06-04T21:55:03.209Z,66.19
2018-06-04T21:57:33.910Z,66.45
2018-06-04T22:00:04.730Z,67.18
2018-06-04T22:02:35.521Z,67.22
2018-06-04T22:05:06.315Z,66.87
2018-06-04T22:07:36.863Z,67.39
2018-06-04T22:10:09.057Z,67.12
2018-06-04T22:12:39.835Z,67.38
2018-06-04T22:15:10.612Z,67.06
2018-06-04T22:17:41.311Z,67.28
2018-06-04T22:20:11.969Z,67.59
2018-06-04T22:22:42.772Z,67.59
2018-06-04T22:25:13.602Z,67.02
2018-06-04T22:27:44.333Z,67.41
2018-06-04T22:30:15.073Z,67.35
2018-06-04T22:32:45.780Z,67.44
2018-06-04T22:35:16.429Z,68.47
2018-06-04T22:37:47.178Z,68.49
2018-06-04T22:40:18.213Z,68.61
2018-06-04T22:42:48.941Z,68.34
2018-06-04T22:45:19.704Z,68.33
2018-06-04T22:47:50.369Z,67.61
2018-06-04T22:50:21.209Z,68.23
2018-06-04T22:52:51.842Z,68.97
2018-06-04T22:55:22.559Z,69.09
2018-06-04T22:57:53.196Z,69.61
2018-06-04T23:00:36.745Z,69.02
2018-06-04T23:03:07.308Z,67.86
2018-06-04T23:05:38.042Z,68.59
2018-06-04T23:08:08.656Z,69.18
2018-06-04T23:10:39.142Z,69.36
2018-06-04T23:13:09.781Z,69.19
2018-06-04T23:15:40.773Z,68.73
2018-06-04T23:18:11.364Z,68.22
2018-06-04T23:20:43.906Z,68.50
2018-06-04T23:23:14.448Z,69.16
2018-06-04T23:25:45.229Z,69.22
2018-06-04T23:28:15.901Z,68.62
2018-06-04T23:30:46.671Z,69.23
2018-06-04T23:33:17.385Z,68.07
2018-06-04T23:35:48.062Z,68.36
2018-06-04T23:38:18.160Z,68.56
2018-06-04T23:40:48.861Z,68.63
2018-06-04T23:43:19.669Z,68.43
2018-06-04T23:45:50.446Z,68.14
2018-06-04T23:48:21.134Z,67.52
2018-06-04T23:50:51.701Z,67.55
2018-06-04T23:53:22.592Z,68.45
2018-06-04T23:55:53.261Z,68.32
2018-06-04T23:58:24.006Z,68.21
